Terminal Aerodrome Forecast
Issued by NWS Shreveport, LA

Home | Current Version | Previous Version | Text Only | Print | Product List | Glossary On
Versions: 1 2 3 4 5 6 7 8 9 10 11 12 13 14 15 16 17 18 19 20 21 22
000
FTUS44 KSHV 301141
TAFGGG
TAF
KGGG 301141Z 3012/0112 25008KT P6SM -RA FEW020 SCT035 BKN100
     FM301500 25012G18KT P6SM BKN090
     FM301800 25016G25KT P6SM SCT035 SCT110 SCT250
     FM302100 25017G25KT P6SM SCT050
     FM010100 25008KT P6SM SKC=

USA.gov is the U.S. government's official web portal to all federal, state and local government web resources and services.